createdAt,value
2017-07-27T00:00:14.783Z,91.77
2017-07-27T00:01:24.738Z,92.15
2017-07-27T00:02:34.065Z,91.58
2017-07-27T00:03:44.338Z,92.15
2017-07-27T00:04:54.303Z,91.67
2017-07-27T00:06:03.945Z,91.77
2017-07-27T00:07:14.216Z,92.15
2017-07-27T00:08:24.485Z,91.29
2017-07-27T00:09:34.129Z,91
2017-07-27T00:10:44.413Z,90.72
2017-07-27T00:11:54.680Z,90.62
2017-07-27T00:13:04.956Z,90.33
2017-07-27T00:14:14.912Z,90.53
2017-07-27T00:15:24.872Z,90.23
2017-07-27T00:16:34.836Z,90.62
2017-07-27T00:17:45.106Z,90.14
2017-07-27T00:18:55.384Z,90.72
2017-07-27T00:20:05.664Z,90.72
2017-07-27T00:21:15.625Z,90.72
2017-07-27T00:22:25.897Z,90.33
2017-07-27T00:23:36.164Z,90.14
2017-07-27T00:24:46.440Z,90.39
2017-07-27T00:25:56.405Z,90
2017-07-27T00:27:06.687Z,90.62
2017-07-27T00:28:16.955Z,90.39
2017-07-27T00:29:26.915Z,90.48
2017-07-27T00:30:37.191Z,90.72
2017-07-27T00:31:47.147Z,90.19
2017-07-27T00:32:59.424Z,90.72
2017-07-27T00:34:09.696Z,91.05
2017-07-27T00:35:19.657Z,91.63
2017-07-27T00:36:29.616Z,91.58
2017-07-27T00:37:39.585Z,91.53
2017-07-27T00:38:49.858Z,91.53
2017-07-27T00:39:59.828Z,91.34
2017-07-27T00:41:09.794Z,91.53
2017-07-27T00:42:19.752Z,90.77
2017-07-27T00:43:29.709Z,91.25
2017-07-27T00:44:39.663Z,91.34
2017-07-27T00:45:49.932Z,91.92
2017-07-27T00:47:00.217Z,91.29
2017-07-27T00:48:10.196Z,91.58
2017-07-27T00:49:20.470Z,91.72
2017-07-27T00:50:30.740Z,92.01
2017-07-27T00:51:40.707Z,92.3
2017-07-27T00:52:50.974Z,92.4
2017-07-27T00:54:01.242Z,92.35
2017-07-27T00:55:11.512Z,91.96
2017-07-27T00:56:21.477Z,92.11
2017-07-27T00:57:31.753Z,91.77
2017-07-27T00:58:41.715Z,92.11
2017-07-27T00:59:51.667Z,91.92
2017-07-27T01:01:01.946Z,91.92
2017-07-27T01:02:11.908Z,92.11
2017-07-27T01:03:22.177Z,92.35
2017-07-27T01:04:32.455Z,92.44
2017-07-27T01:05:42.725Z,92.44
2017-07-27T01:06:52.683Z,92.49
2017-07-27T01:08:02.338Z,92.35
2017-07-27T01:09:11.982Z,92.15
2017-07-27T01:10:22.250Z,93.21
2017-07-27T01:11:32.522Z,92.54
2017-07-27T01:12:42.795Z,92.35
2017-07-27T01:13:52.767Z,92.63
2017-07-27T01:15:02.406Z,92.35
2017-07-27T01:16:12.677Z,92.25
2017-07-27T01:17:22.948Z,91.77
2017-07-27T01:18:33.222Z,92.35
2017-07-27T01:19:43.187Z,92.73
2017-07-27T01:20:53.483Z,92.63
2017-07-27T01:22:03.756Z,92.92
2017-07-27T01:23:13.712Z,92.63
2017-07-27T01:24:23.981Z,92.73
2017-07-27T01:25:34.260Z,92.82
2017-07-27T01:26:43.907Z,92.54
2017-07-27T01:27:54.178Z,92.63
2017-07-27T01:29:04.448Z,92.73
2017-07-27T01:30:14.716Z,92.73
2017-07-27T01:31:24.994Z,92.54
2017-07-27T01:32:35.267Z,92.35
2017-07-27T01:33:45.541Z,92.73
2017-07-27T01:34:55.811Z,93.11
2017-07-27T01:36:05.768Z,92.73
2017-07-27T01:37:15.729Z,93.45
2017-07-27T01:38:25.995Z,93.49
2017-07-27T01:39:36.264Z,93.49
2017-07-27T01:40:46.220Z,94.07
2017-07-27T01:41:56.516Z,93.69
2017-07-27T01:43:06.790Z,93.69
2017-07-27T01:44:17.067Z,94.02
2017-07-27T01:45:27.344Z,93.64
2017-07-27T01:46:36.669Z,93.59
2017-07-27T01:47:46.626Z,93.88
2017-07-27T01:48:56.590Z,93.69
2017-07-27T01:50:06.240Z,94.35
2017-07-27T01:51:16.195Z,94.26
2017-07-27T01:52:26.467Z,94.17
2017-07-27T01:53:36.735Z,94.35
2017-07-27T01:54:47.006Z,94.55
2017-07-27T01:55:56.962Z,94.45
2017-07-27T01:57:07.234Z,94.35
2017-07-27T01:58:17.516Z,94.17
2017-07-27T01:59:27.798Z,93.98
2017-07-27T02:00:37.751Z,94.07
2017-07-27T02:01:48.031Z,93.64
2017-07-27T02:02:57.993Z,93.88
2017-07-27T02:04:07.951Z,93.69
2017-07-27T02:05:18.225Z,94.35
2017-07-27T02:06:28.499Z,93.78
2017-07-27T02:07:38.828Z,94.45
2017-07-27T02:08:48.788Z,94.45
2017-07-27T02:09:58.744Z,94.31
2017-07-27T02:11:09.016Z,94.4
2017-07-27T02:12:19.544Z,94.35
2017-07-27T02:13:29.513Z,94.74
2017-07-27T02:14:39.786Z,95.22
2017-07-27T02:15:50.058Z,95.03
2017-07-27T02:17:00.329Z,95.41
2017-07-27T02:18:12.128Z,95.17
2017-07-27T02:19:22.398Z,95.22
2017-07-27T02:20:32.675Z,96.03
2017-07-27T02:21:42.632Z,96.22
2017-07-27T02:22:52.912Z,95.7
2017-07-27T02:24:02.868Z,96.42
2017-07-27T02:25:12.824Z,95.56
2017-07-27T02:26:23.093Z,95.84
2017-07-27T02:27:33.055Z,95.17
2017-07-27T02:28:43.020Z,95.46
2017-07-27T02:29:52.987Z,95.07
2017-07-27T02:31:03.259Z,94.12
2017-07-27T02:32:13.534Z,93.88
2017-07-27T02:33:23.845Z,93.93
2017-07-27T02:34:33.506Z,93.74
2017-07-27T02:35:43.780Z,93.83
2017-07-27T02:36:53.437Z,93.83
2017-07-27T02:38:03.714Z,93.64
2017-07-27T02:39:13.996Z,93.93
2017-07-27T02:40:24.278Z,94.45
2017-07-27T02:41:34.241Z,94.31
2017-07-27T02:42:44.204Z,94.21
2017-07-27T02:43:54.479Z,95.17
2017-07-27T02:45:04.452Z,94.98
2017-07-27T02:46:14.421Z,95.84
2017-07-27T02:47:24.691Z,95.46
2017-07-27T02:48:34.334Z,95.46
2017-07-27T02:49:44.600Z,95.51
2017-07-27T02:50:54.881Z,95.27
2017-07-27T02:52:05.154Z,94.89
2017-07-27T02:53:14.795Z,94.98
2017-07-27T02:54:24.752Z,96.03
2017-07-27T02:55:34.724Z,95.75
2017-07-27T02:56:44.681Z,95.22
2017-07-27T02:57:54.952Z,95.84
2017-07-27T02:59:07.231Z,95.84
2017-07-27T03:00:16.871Z,95.94
2017-07-27T03:01:27.146Z,95.84
2017-07-27T03:02:37.125Z,95.65
2017-07-27T03:03:47.390Z,96.13
2017-07-27T03:04:57.658Z,95.94
2017-07-27T03:06:07.617Z,95.84
2017-07-27T03:07:17.575Z,95.84
2017-07-27T03:08:27.531Z,96.61
2017-07-27T03:09:37.805Z,96.03
2017-07-27T03:10:48.079Z,96.03
2017-07-27T03:11:58.351Z,96.32
2017-07-27T03:13:08.624Z,96.32
2017-07-27T03:14:18.903Z,96.42
2017-07-27T03:15:29.182Z,96.32
2017-07-27T03:16:39.453Z,96.61
2017-07-27T03:17:49.096Z,96.7
2017-07-27T03:18:59.363Z,96.42
2017-07-27T03:20:09.635Z,96.61
2017-07-27T03:21:19.909Z,97.09
2017-07-27T03:22:29.867Z,96.8
2017-07-27T03:23:40.136Z,96.8
2017-07-27T03:24:50.091Z,96.7
2017-07-27T03:25:59.735Z,96.32
2017-07-27T03:27:10.028Z,96.89
2017-07-27T03:28:20.300Z,96.8
2017-07-27T03:29:30.570Z,96.99
2017-07-27T03:30:40.846Z,96.51
2017-07-27T03:31:51.148Z,96.51
2017-07-27T03:33:01.435Z,96.89
2017-07-27T03:34:11.389Z,97.09
2017-07-27T03:35:21.346Z,96.61
2017-07-27T03:36:31.303Z,96.42
2017-07-27T03:37:41.263Z,96.7
2017-07-27T03:38:51.226Z,96.89
2017-07-27T03:40:00.871Z,96.61
2017-07-27T03:41:11.146Z,96.7
2017-07-27T03:42:21.425Z,96.51
2017-07-27T03:43:31.700Z,96.42
2017-07-27T03:44:41.971Z,96.42
2017-07-27T03:45:51.927Z,96.51
2017-07-27T03:47:02.199Z,96.7
2017-07-27T03:48:12.475Z,96.32
2017-07-27T03:49:22.747Z,96.42
2017-07-27T03:50:33.016Z,96.42
2017-07-27T03:51:43.287Z,96.32
2017-07-27T03:52:52.932Z,96.13
2017-07-27T03:54:02.584Z,96.42
2017-07-27T03:55:12.547Z,96.22
2017-07-27T03:56:22.514Z,96.51
2017-07-27T03:57:32.787Z,96.42
2017-07-27T03:58:42.745Z,96.03
2017-07-27T03:59:53.014Z,95.46
2017-07-27T04:01:02.679Z,95.46
2017-07-27T04:02:12.634Z,95.75
2017-07-27T04:03:22.596Z,95.84
2017-07-27T04:04:32.862Z,95.46
2017-07-27T04:05:42.843Z,95.56
2017-07-27T04:06:53.111Z,96.13
2017-07-27T04:08:03.072Z,95.65
2017-07-27T04:09:13.341Z,95.46
2017-07-27T04:10:23.323Z,95.36
2017-07-27T04:11:33.597Z,95.84
2017-07-27T04:12:43.576Z,95.84
2017-07-27T04:13:53.841Z,95.56
2017-07-27T04:15:04.119Z,95.75
2017-07-27T04:16:14.394Z,95.84
2017-07-27T04:17:24.669Z,96.03
2017-07-27T04:18:34.624Z,96.51
2017-07-27T04:19:44.899Z,96.13
2017-07-27T04:20:54.855Z,96.32
2017-07-27T04:22:04.834Z,96.18
2017-07-27T04:23:15.111Z,96.27
2017-07-27T04:24:25.070Z,96.03
2017-07-27T04:25:35.032Z,96.42
2017-07-27T04:26:45.304Z,96.37
2017-07-27T04:27:55.581Z,96.27
2017-07-27T04:29:05.542Z,96.51
2017-07-27T04:30:15.189Z,96.47
2017-07-27T04:31:25.464Z,96.56
2017-07-27T04:32:35.733Z,96.08
2017-07-27T04:33:46.003Z,96.18
2017-07-27T04:34:56.271Z,96.27
2017-07-27T04:36:06.229Z,96.47
2017-07-27T04:37:16.186Z,96.56
2017-07-27T04:38:26.469Z,95.79
2017-07-27T04:39:36.742Z,95.51
2017-07-27T04:40:47.010Z,95.79
2017-07-27T04:41:56.977Z,95.89
2017-07-27T04:43:06.937Z,95.6
2017-07-27T04:44:17.209Z,95.7
2017-07-27T04:45:27.480Z,95.31
2017-07-27T04:46:37.439Z,95.22
2017-07-27T04:47:47.708Z,95.41
2017-07-27T04:48:57.663Z,95.12
2017-07-27T04:50:07.322Z,95.31
2017-07-27T04:51:17.282Z,95.41
2017-07-27T04:52:27.553Z,95.31
2017-07-27T04:53:37.515Z,95.51
2017-07-27T04:54:47.479Z,95.12
2017-07-27T04:55:57.743Z,95.03
2017-07-27T04:57:07.696Z,95.12
2017-07-27T04:58:17.968Z,95.03
2017-07-27T04:59:27.609Z,95.31
2017-07-27T05:00:37.892Z,95.12
2017-07-27T05:01:47.849Z,95.51
2017-07-27T05:02:57.805Z,95.31
2017-07-27T05:04:07.764Z,95.22
2017-07-27T05:05:17.724Z,95.51
2017-07-27T05:06:28.005Z,95.12
2017-07-27T05:07:38.277Z,94.93
2017-07-27T05:08:48.555Z,95.12
2017-07-27T05:09:58.836Z,95.79
2017-07-27T05:11:09.122Z,95.98
2017-07-27T05:12:19.400Z,95.89
2017-07-27T05:13:29.366Z,95.22
2017-07-27T05:14:39.338Z,94.93
2017-07-27T05:15:49.608Z,95.12
2017-07-27T05:16:59.889Z,95.22
2017-07-27T05:18:10.157Z,95.89
2017-07-27T05:19:20.432Z,95.89
2017-07-27T05:20:30.702Z,95.22
2017-07-27T05:21:40.974Z,95.79
2017-07-27T05:22:51.247Z,96.18
2017-07-27T05:24:01.515Z,95.22
2017-07-27T05:25:11.475Z,95.46
2017-07-27T05:26:21.752Z,95.41
2017-07-27T05:27:32.037Z,94.93
2017-07-27T05:28:41.681Z,95.31
2017-07-27T05:29:51.955Z,95.51
2017-07-27T05:31:01.912Z,95.12
2017-07-27T05:32:12.190Z,95.22
2017-07-27T05:33:22.475Z,94.5
2017-07-27T05:34:32.429Z,94.69
2017-07-27T05:35:42.389Z,94.5
2017-07-27T05:36:52.665Z,94.31
2017-07-27T05:38:02.333Z,94.12
2017-07-27T05:39:12.606Z,94.31
2017-07-27T05:40:22.246Z,94.31
2017-07-27T05:41:32.203Z,94.31
2017-07-27T05:42:42.500Z,94.4
2017-07-27T05:43:52.457Z,93.83
2017-07-27T05:45:02.736Z,94.5
2017-07-27T05:46:12.694Z,94.4
2017-07-27T05:47:22.335Z,94.12
2017-07-27T05:48:32.609Z,93.54
2017-07-27T05:49:42.567Z,93.73
2017-07-27T05:50:52.839Z,93.16
2017-07-27T05:52:03.114Z,92.58
2017-07-27T05:53:12.755Z,92.68
2017-07-27T05:54:23.027Z,92.58
2017-07-27T05:55:33.299Z,92.39
2017-07-27T05:56:43.574Z,92.34
2017-07-27T05:57:53.843Z,92.63
2017-07-27T05:59:03.488Z,91.82
2017-07-27T06:00:13.762Z,91.67
2017-07-27T06:01:24.045Z,91.43
2017-07-27T06:02:33.686Z,90.9
2017-07-27T06:03:43.976Z,90.9
2017-07-27T06:04:53.935Z,90.42
2017-07-27T06:06:03.895Z,91
2017-07-27T06:07:13.851Z,91.19
2017-07-27T06:08:23.808Z,91.19
2017-07-27T06:09:33.455Z,91
2017-07-27T06:10:43.731Z,91.48
2017-07-27T06:11:53.696Z,91.57
2017-07-27T06:13:03.980Z,91.38
2017-07-27T06:14:14.251Z,91.57
2017-07-27T06:15:24.521Z,91.57
2017-07-27T06:16:34.475Z,91.57
2017-07-27T06:17:44.743Z,91.67
2017-07-27T06:18:55.015Z,92.44
2017-07-27T06:20:04.665Z,93.01
2017-07-27T06:21:14.626Z,93.3
2017-07-27T06:22:24.582Z,93.88
2017-07-27T06:23:34.538Z,94.17
2017-07-27T06:24:44.821Z,93.78
2017-07-27T06:25:55.104Z,93.93
2017-07-27T06:27:05.065Z,93.88
2017-07-27T06:28:15.350Z,94.45
2017-07-27T06:29:25.623Z,93.54
2017-07-27T06:30:35.602Z,93.73
2017-07-27T06:31:45.873Z,94.02
2017-07-27T06:32:55.840Z,94.02
2017-07-27T06:34:05.794Z,93.73
2017-07-27T06:35:15.438Z,93.97
2017-07-27T06:36:25.712Z,93.73
2017-07-27T06:37:35.988Z,93.88
2017-07-27T06:38:45.946Z,94.12
2017-07-27T06:39:56.227Z,94.02
2017-07-27T06:41:06.186Z,94.12
2017-07-27T06:42:16.464Z,94.26
2017-07-27T06:43:26.420Z,93.73
2017-07-27T06:44:36.693Z,94.31
2017-07-27T06:45:46.967Z,94.31
2017-07-27T06:46:56.612Z,93.93
2017-07-27T06:48:06.261Z,94.12
2017-07-27T06:49:16.534Z,94.12
2017-07-27T06:50:26.858Z,94.12
2017-07-27T06:51:36.816Z,93.83
2017-07-27T06:52:49.390Z,94.02
2017-07-27T06:53:59.359Z,93.83
2017-07-27T06:55:09.637Z,93.73
2017-07-27T06:56:19.911Z,93.73
2017-07-27T06:57:30.192Z,93.93
2017-07-27T06:58:40.149Z,93.97
2017-07-27T06:59:50.483Z,93.83
2017-07-27T07:01:00.752Z,94.12
2017-07-27T07:02:11.024Z,93.73
2017-07-27T07:03:21.313Z,94.26
2017-07-27T07:04:31.592Z,93.73
2017-07-27T07:05:41.547Z,93.78
2017-07-27T07:06:51.500Z,94.07
2017-07-27T07:08:01.793Z,94.02
2017-07-27T07:09:11.751Z,93.97
2017-07-27T07:10:22.025Z,94.07
2017-07-27T07:11:32.302Z,93.49
2017-07-27T07:12:42.262Z,93.68
2017-07-27T07:13:52.534Z,93.21
2017-07-27T07:15:02.493Z,92.82
2017-07-27T07:16:12.767Z,93.21
2017-07-27T07:17:22.725Z,93.4
2017-07-27T07:18:33.034Z,93.59
2017-07-27T07:19:43.329Z,93.59
2017-07-27T07:20:53.599Z,92.82
2017-07-27T07:22:03.241Z,93.06
2017-07-27T07:23:13.512Z,92.86
2017-07-27T07:24:23.783Z,92.39
2017-07-27T07:25:33.740Z,92.24
2017-07-27T07:26:44.012Z,92.63
2017-07-27T07:27:53.974Z,92.44
2017-07-27T07:29:03.934Z,92.44
2017-07-27T07:30:14.207Z,92.91
2017-07-27T07:31:24.479Z,92.34
2017-07-27T07:32:34.747Z,92.63
2017-07-27T07:33:45.046Z,92.44
2017-07-27T07:34:55.373Z,92.44
2017-07-27T07:36:05.333Z,91.42
2017-07-27T07:37:15.289Z,92.54
2017-07-27T07:38:25.588Z,92.19
2017-07-27T07:39:35.862Z,92.54
2017-07-27T07:40:45.820Z,92.39
2017-07-27T07:41:56.092Z,92.34
2017-07-27T07:43:05.740Z,92.39
2017-07-27T07:44:15.702Z,92.48
2017-07-27T07:45:25.655Z,92.34
2017-07-27T07:46:35.933Z,92.48
2017-07-27T07:47:45.897Z,92.63
2017-07-27T07:48:55.863Z,92.39
2017-07-27T07:50:06.139Z,92.68
2017-07-27T07:51:16.411Z,92.54
2017-07-27T07:52:26.694Z,93.01
2017-07-27T07:53:36.979Z,93.49
2017-07-27T07:54:47.257Z,93.68
2017-07-27T07:55:57.231Z,94.07
2017-07-27T07:57:07.185Z,94.07
2017-07-27T07:58:17.147Z,94.17
2017-07-27T07:59:27.417Z,94.26
2017-07-27T08:00:37.378Z,94.54
2017-07-27T08:01:47.654Z,94.45
2017-07-27T08:02:57.934Z,94.64
2017-07-27T08:04:07.890Z,94.64
2017-07-27T08:05:17.850Z,94.84
2017-07-27T08:06:27.813Z,95.21
2017-07-27T08:07:38.085Z,95.31
2017-07-27T08:08:47.736Z,94.64
2017-07-27T08:09:57.696Z,94.54
2017-07-27T08:11:07.971Z,95.21
2017-07-27T08:12:18.253Z,95.79
2017-07-27T08:13:28.218Z,95.79
2017-07-27T08:14:38.486Z,95.6
2017-07-27T08:15:48.767Z,95.89
2017-07-27T08:16:59.046Z,95.79
2017-07-27T08:18:09.319Z,95.98
2017-07-27T08:19:19.603Z,96.66
2017-07-27T08:20:29.573Z,95.98
2017-07-27T08:21:39.849Z,96.37
2017-07-27T08:22:49.492Z,95.98
2017-07-27T08:23:59.209Z,95.7
2017-07-27T08:25:09.481Z,96.22
2017-07-27T08:26:19.441Z,96.22
2017-07-27T08:27:29.720Z,96.22
2017-07-27T08:28:39.387Z,96.22
2017-07-27T08:29:49.679Z,96.51
2017-07-27T08:30:59.953Z,96.22
2017-07-27T08:32:10.234Z,96.32
2017-07-27T08:33:20.214Z,95.36
2017-07-27T08:34:30.496Z,95.26
2017-07-27T08:35:40.455Z,94.79
2017-07-27T08:36:50.734Z,95.41
2017-07-27T08:38:00.718Z,94.16
2017-07-27T08:39:10.677Z,94.26
2017-07-27T08:40:20.955Z,93.59
2017-07-27T08:41:31.236Z,93.49
2017-07-27T08:42:41.508Z,93.77
2017-07-27T08:43:51.787Z,94.26
2017-07-27T08:45:02.092Z,93.97
2017-07-27T08:46:12.059Z,93.87
2017-07-27T08:47:22.036Z,93.15
2017-07-27T08:48:31.995Z,92.96
2017-07-27T08:49:42.268Z,93.15
2017-07-27T08:50:51.913Z,92.38
2017-07-27T08:52:01.869Z,92.38
2017-07-27T08:53:11.835Z,92.48
2017-07-27T08:54:22.109Z,92.57
2017-07-27T08:55:32.382Z,92.86
2017-07-27T08:56:42.336Z,92.48
2017-07-27T08:57:52.306Z,91.61
2017-07-27T08:59:02.262Z,91.04
2017-07-27T09:00:11.913Z,91.81
2017-07-27T09:01:22.183Z,91.61
2017-07-27T09:02:32.456Z,91.33
2017-07-27T09:03:42.728Z,91.71
2017-07-27T09:04:52.696Z,91.71
2017-07-27T09:06:02.656Z,90.37
2017-07-27T09:07:12.931Z,90.75
2017-07-27T09:08:23.208Z,90.17
2017-07-27T09:09:33.482Z,90.22
2017-07-27T09:10:43.755Z,89.74
2017-07-27T09:11:53.715Z,89.16
2017-07-27T09:13:03.669Z,89.16
2017-07-27T09:14:13.626Z,88.92
2017-07-27T09:15:23.912Z,88.73
2017-07-27T09:16:33.879Z,87.67
2017-07-27T09:17:44.153Z,87.57
2017-07-27T09:18:54.428Z,87.71
2017-07-27T09:20:04.711Z,86.99
2017-07-27T09:21:14.673Z,87.57
2017-07-27T09:22:24.952Z,87.71
2017-07-27T09:23:34.911Z,86.85
2017-07-27T09:24:45.185Z,87.62
2017-07-27T09:25:55.145Z,86.69
2017-07-27T09:27:05.430Z,86.02
2017-07-27T09:28:15.390Z,86.99
2017-07-27T09:29:25.670Z,86.6
2017-07-27T09:30:35.946Z,87.18
2017-07-27T09:31:46.232Z,86.22
2017-07-27T09:32:56.515Z,86.31
2017-07-27T09:34:06.790Z,84.43
2017-07-27T09:35:16.760Z,84.53
2017-07-27T09:36:26.734Z,84.05
2017-07-27T09:37:37.012Z,83.85
2017-07-27T09:38:47.282Z,84.53
2017-07-27T09:39:56.934Z,85.05
2017-07-27T09:41:06.925Z,83.51
2017-07-27T09:42:16.889Z,83.03
2017-07-27T09:43:27.168Z,81.29
2017-07-27T09:44:37.129Z,82.06
2017-07-27T09:45:47.409Z,81.39
2017-07-27T09:46:57.058Z,82.06
2017-07-27T09:48:07.406Z,80.81
2017-07-27T09:49:17.077Z,81.33
2017-07-27T09:50:27.355Z,80.27
2017-07-27T09:51:37.638Z,80.94
2017-07-27T09:52:47.916Z,79.89
2017-07-27T09:53:57.566Z,80.46
2017-07-27T09:55:07.905Z,80.94
2017-07-27T09:56:18.183Z,79.25
2017-07-27T09:57:28.142Z,76.84
2017-07-27T09:58:38.418Z,76.55
2017-07-27T09:59:48.696Z,77.23
2017-07-27T10:00:58.664Z,77.33
2017-07-27T10:02:08.941Z,77.23
2017-07-27T10:03:18.903Z,76.59
2017-07-27T10:04:28.866Z,76.84
2017-07-27T10:05:39.150Z,76.88
2017-07-27T10:06:49.440Z,76.4
2017-07-27T10:07:59.713Z,76.59
2017-07-27T10:09:09.995Z,76.78
2017-07-27T10:10:20.267Z,76.82
2017-07-27T10:11:30.238Z,76.43
2017-07-27T10:12:40.513Z,77.01
2017-07-27T10:13:50.815Z,75.76
2017-07-27T10:15:01.095Z,74.6
2017-07-27T10:16:11.375Z,75.27
2017-07-27T10:17:21.342Z,74.6
2017-07-27T10:18:31.624Z,74.12
2017-07-27T10:19:41.898Z,74.31
2017-07-27T10:20:51.860Z,74.76
2017-07-27T10:22:02.136Z,76.1
2017-07-27T10:23:12.415Z,76.2
2017-07-27T10:24:22.380Z,75.82
2017-07-27T10:25:32.053Z,75.92
2017-07-27T10:26:42.325Z,75.97
2017-07-27T10:27:52.601Z,76.55
2017-07-27T10:29:02.888Z,76.36
2017-07-27T10:30:12.853Z,76.9
2017-07-27T10:31:23.134Z,76.8
2017-07-27T10:32:32.781Z,76.8
2017-07-27T10:33:43.054Z,77.19
2017-07-27T10:34:53.020Z,77.58
2017-07-27T10:36:03.293Z,77.38
2017-07-27T10:37:12.942Z,77.34
2017-07-27T10:38:23.233Z,77.44
2017-07-27T10:39:32.882Z,77.63
2017-07-27T10:40:43.175Z,78.11
2017-07-27T10:41:53.444Z,77.73
2017-07-27T10:43:03.439Z,76.86
2017-07-27T10:44:13.737Z,77.34
2017-07-27T10:45:23.698Z,77.63
2017-07-27T10:46:33.659Z,77.44
2017-07-27T10:47:43.621Z,77.63
2017-07-27T10:48:53.898Z,77.63
2017-07-27T10:50:03.862Z,77.73
2017-07-27T10:51:13.881Z,77.73
2017-07-27T10:52:24.159Z,77.63
2017-07-27T10:53:34.120Z,78.08
2017-07-27T10:54:44.084Z,78.79
2017-07-27T10:55:54.044Z,78.85
2017-07-27T10:57:04.017Z,78.69
2017-07-27T10:58:13.990Z,77.25
2017-07-27T10:59:24.262Z,77.34
2017-07-27T11:00:34.537Z,77.44
2017-07-27T11:01:44.811Z,76.76
2017-07-27T11:02:55.086Z,76.67
2017-07-27T11:04:04.744Z,76.57
2017-07-27T11:05:14.708Z,76.38
2017-07-27T11:06:24.984Z,76.48
2017-07-27T11:07:35.258Z,76.28
2017-07-27T11:08:44.593Z,75.9
2017-07-27T11:09:54.873Z,75.93
2017-07-27T11:11:04.834Z,75.65
2017-07-27T11:12:15.117Z,75.07
2017-07-27T11:13:25.397Z,75.07
2017-07-27T11:14:35.359Z,75.07
2017-07-27T11:15:45.639Z,75.26
2017-07-27T11:16:55.293Z,75.16
2017-07-27T11:18:05.256Z,75.74
2017-07-27T11:19:14.908Z,74.97
2017-07-27T11:20:25.190Z,75.01
2017-07-27T11:21:35.474Z,74.14
2017-07-27T11:22:45.439Z,73.41
2017-07-27T11:23:55.401Z,72.73
2017-07-27T11:25:05.372Z,70.8
2017-07-27T11:26:15.334Z,72.06
2017-07-27T11:27:25.318Z,70.45
2017-07-27T11:28:35.600Z,68.71
2017-07-27T11:29:45.874Z,69.52
2017-07-27T11:30:56.179Z,69.62
2017-07-27T11:32:06.459Z,69.62
2017-07-27T11:33:16.738Z,70.42
2017-07-27T11:34:26.699Z,69.46
2017-07-27T11:35:36.668Z,68.98
2017-07-27T11:36:46.629Z,69.01
2017-07-27T11:37:56.915Z,68.82
2017-07-27T11:39:09.207Z,67.27
2017-07-27T11:40:19.178Z,66.33
2017-07-27T11:41:29.144Z,66.53
2017-07-27T11:42:39.429Z,66.05
2017-07-27T11:43:49.393Z,65.75
2017-07-27T11:44:59.694Z,65.85
2017-07-27T11:46:09.664Z,65.08
2017-07-27T11:47:19.942Z,66.14
2017-07-27T11:48:29.594Z,65.47
2017-07-27T11:49:39.876Z,65.34
2017-07-27T11:50:50.158Z,66.5
2017-07-27T11:52:00.439Z,64.5
2017-07-27T11:53:10.721Z,63.92
2017-07-27T11:54:21.001Z,64.14
2017-07-27T11:55:31.278Z,64.72
2017-07-27T11:56:41.278Z,63.89
2017-07-27T11:57:50.934Z,63.98
2017-07-27T11:59:01.227Z,62.92
2017-07-27T12:00:11.536Z,63.69
2017-07-27T12:01:21.815Z,62.82
2017-07-27T12:02:32.147Z,61.66
2017-07-27T12:03:42.107Z,62.04
2017-07-27T12:04:52.080Z,61.21
2017-07-27T12:06:02.363Z,61.3
2017-07-27T12:07:12.644Z,60.33
2017-07-27T12:08:22.302Z,60.52
2017-07-27T12:09:32.582Z,61.59
2017-07-27T12:10:42.866Z,61.49
2017-07-27T12:11:53.147Z,59
2017-07-27T12:13:03.425Z,57.26
2017-07-27T12:14:13.723Z,57.84
2017-07-27T12:15:23.689Z,59.69
2017-07-27T12:16:33.344Z,58.42
2017-07-27T12:17:43.310Z,59.1
2017-07-27T12:18:53.593Z,58.78
2017-07-27T12:20:03.880Z,57.81
2017-07-27T12:21:13.855Z,58.49
2017-07-27T12:22:23.821Z,58.47
2017-07-27T12:23:34.113Z,58.37
2017-07-27T12:24:44.079Z,57.88
2017-07-27T12:25:54.363Z,58.65
2017-07-27T12:27:04.324Z,59.63
2017-07-27T12:28:14.298Z,60.21
2017-07-27T12:29:24.583Z,60.78
2017-07-27T12:30:34.550Z,60.78
2017-07-27T12:31:44.833Z,61.27
2017-07-27T12:32:54.801Z,61.56
2017-07-27T12:34:04.781Z,61.36
2017-07-27T12:35:14.747Z,60.88
2017-07-27T12:36:24.706Z,61.18
2017-07-27T12:37:34.989Z,61.46
2017-07-27T12:38:45.269Z,61.18
2017-07-27T12:39:55.239Z,61.36
2017-07-27T12:41:05.206Z,61.36
2017-07-27T12:42:15.173Z,61.46
2017-07-27T12:43:25.451Z,62.24
2017-07-27T12:44:35.735Z,62.21
2017-07-27T12:45:46.011Z,62.69
2017-07-27T12:46:56.291Z,63.73
2017-07-27T12:48:06.574Z,63.43
2017-07-27T12:49:16.855Z,63.73
2017-07-27T12:50:27.146Z,63.69
2017-07-27T12:51:37.433Z,63.79
2017-07-27T12:52:47.713Z,63.85
2017-07-27T12:53:58.004Z,65.2
2017-07-27T12:55:07.965Z,66.33
2017-07-27T12:56:18.247Z,67.94
2017-07-27T12:57:28.530Z,68.71
2017-07-27T12:58:38.817Z,69.29
2017-07-27T12:59:49.095Z,69.93
2017-07-27T13:00:59.055Z,68.49
2017-07-27T13:02:09.025Z,67.2
2017-07-27T13:03:19.310Z,67.65
2017-07-27T13:04:29.586Z,68.23
2017-07-27T13:05:39.550Z,68.87
2017-07-27T13:06:49.857Z,69.73
2017-07-27T13:07:59.826Z,70.31
2017-07-27T13:09:09.792Z,70.28
2017-07-27T13:10:20.071Z,70.47
2017-07-27T13:11:30.033Z,70.76
2017-07-27T13:12:40.195Z,71.14
2017-07-27T13:13:50.161Z,71.88
2017-07-27T13:15:00.432Z,72.26
2017-07-27T13:16:09.779Z,71.78
2017-07-27T13:17:20.057Z,72.36
2017-07-27T13:18:30.016Z,73.03
2017-07-27T13:19:40.298Z,72.74
2017-07-27T13:20:50.271Z,73.32
2017-07-27T13:22:00.243Z,72.84
2017-07-27T13:23:09.888Z,73.13
2017-07-27T13:24:19.855Z,73.07
2017-07-27T13:25:29.825Z,74.32
2017-07-27T13:26:40.099Z,73.46
2017-07-27T13:27:50.376Z,74.41
2017-07-27T13:29:00.670Z,74.03
2017-07-27T13:30:10.955Z,73.1
2017-07-27T13:31:21.240Z,73.49
2017-07-27T13:32:30.898Z,72.91
2017-07-27T13:33:41.173Z,72.43
2017-07-27T13:34:51.452Z,71.85
2017-07-27T13:36:01.414Z,71.18
2017-07-27T13:37:11.691Z,71.28
2017-07-27T13:38:21.974Z,71.56
2017-07-27T13:39:31.935Z,71.89
2017-07-27T13:40:41.898Z,71.79
2017-07-27T13:41:52.167Z,71.89
2017-07-27T13:43:02.126Z,70.64
2017-07-27T13:44:11.774Z,70.54
2017-07-27T13:45:22.058Z,70.48
2017-07-27T13:46:32.023Z,70.25
2017-07-27T13:47:42.317Z,69.87
2017-07-27T13:48:52.594Z,70.48
2017-07-27T13:50:02.869Z,70.35
2017-07-27T13:51:13.146Z,70.64
2017-07-27T13:52:23.428Z,71.22
2017-07-27T13:53:33.704Z,71.22
2017-07-27T13:54:43.985Z,70.73
2017-07-27T13:55:54.260Z,71.6
2017-07-27T13:57:03.905Z,71.12
2017-07-27T13:58:13.865Z,70.73
2017-07-27T13:59:23.835Z,70.35
2017-07-27T14:00:34.118Z,70.54
2017-07-27T14:01:44.404Z,71.22
2017-07-27T14:02:54.681Z,69.96
2017-07-27T14:04:04.640Z,70.54
2017-07-27T14:05:14.289Z,70.54
2017-07-27T14:06:24.257Z,69.57
2017-07-27T14:07:34.223Z,69.19
2017-07-27T14:08:44.506Z,70.35
2017-07-27T14:09:54.156Z,69.57
2017-07-27T14:11:04.118Z,70.06
2017-07-27T14:12:14.395Z,69.87
2017-07-27T14:13:24.356Z,70.35
2017-07-27T14:14:34.638Z,70.83
2017-07-27T14:15:44.604Z,69.67
2017-07-27T14:16:54.878Z,69.61
2017-07-27T14:18:05.162Z,70
2017-07-27T14:19:15.445Z,70.67
2017-07-27T14:20:25.735Z,70.38
2017-07-27T14:21:35.692Z,69.71
2017-07-27T14:22:45.981Z,68.55
2017-07-27T14:23:56.260Z,67.58
2017-07-27T14:25:06.534Z,67.58
2017-07-27T14:26:16.815Z,67.3
2017-07-27T14:27:27.097Z,67.78
2017-07-27T14:28:37.368Z,67.88
2017-07-27T14:29:47.639Z,67.49
2017-07-27T14:30:57.924Z,67.2
2017-07-27T14:32:08.203Z,66.14
2017-07-27T14:33:18.158Z,66.24
2017-07-27T14:34:28.439Z,65.27
2017-07-27T14:35:38.406Z,64.69
2017-07-27T14:36:48.369Z,65.75
2017-07-27T14:37:58.644Z,65.47
2017-07-27T14:39:08.929Z,66.97
2017-07-27T14:40:19.208Z,67.3
2017-07-27T14:41:29.479Z,68.26
2017-07-27T14:42:39.754Z,67.78
2017-07-27T14:43:49.720Z,69.67
2017-07-27T14:44:59.373Z,69.29
2017-07-27T14:46:09.343Z,68.04
2017-07-27T14:47:19.616Z,69.19
2017-07-27T14:48:29.891Z,68.99
2017-07-27T14:49:40.202Z,68.99
2017-07-27T14:50:50.501Z,69.38
2017-07-27T14:52:00.463Z,68.13
2017-07-27T14:53:10.745Z,68.74
2017-07-27T14:54:21.026Z,68.84
2017-07-27T14:55:31.303Z,69.71
2017-07-27T14:56:41.266Z,70.48
2017-07-27T14:57:51.228Z,70.86
2017-07-27T14:59:01.190Z,69.51
2017-07-27T15:00:11.479Z,69.42
2017-07-27T15:01:21.439Z,68.97
2017-07-27T15:02:31.716Z,66.46
2017-07-27T15:03:41.995Z,66.36
2017-07-27T15:04:52.267Z,66.27